Time;durP1;ratioP1;P1;durP2;ratioP2;P2;SDS_P1;SDS_P2;PMS_P1;PMS_P2;Temp;Humidity;BMP_temperature;BMP_pressure;BME280_temperature;BME280_humidity;BME280_pressure;Samples;Min_cycle;Max_cycle;Signal;HPM_P1;HPM_P2
2023/07/01 00:01:30;;;;;;;0.93;0.70;;;21.50;55.20;;;;;;5028590;28;20026;-67
2023/07/01 00:03:56;;;;;;;0.82;0.82;;;21.50;55.00;;;;;;5027827;28;20040;-67
2023/07/01 00:06:22;;;;;;;0.93;0.82;;;21.40;54.70;;;;;;5027797;28;20053;-67
2023/07/01 00:08:48;;;;;;;3.42;0.80;;;21.50;54.80;;;;;;5027666;28;20033;-67
2023/07/01 00:11:13;;;;;;;2.90;0.93;;;21.50;54.60;;;;;;5010422;28;20030;-67
2023/07/01 00:13:39;;;;;;;1.55;0.95;;;21.40;54.40;;;;;;5027504;28;20060;-67
2023/07/01 00:16:05;;;;;;;0.70;0.70;;;21.40;54.30;;;;;;5025752;28;20032;-67
2023/07/01 00:18:31;;;;;;;0.90;0.70;;;21.40;54.40;;;;;;5027288;28;20489;-67
2023/07/01 00:20:56;;;;;;;2.35;0.75;;;21.40;54.40;;;;;;5027460;28;20632;-66
2023/07/01 00:23:22;;;;;;;1.77;0.85;;;21.40;54.30;;;;;;5026598;28;20057;-65
2023/07/01 00:25:48;;;;;;;1.65;0.77;;;21.40;54.20;;;;;;5028312;28;20385;-64
2023/07/01 00:28:14;;;;;;;0.60;0.60;;;21.40;53.70;;;;;;4992116;28;20034;-66
2023/07/01 00:30:40;;;;;;;5.15;0.80;;;21.40;53.70;;;;;;5027669;28;20453;-66
2023/07/01 00:33:05;;;;;;;1.30;0.90;;;21.40;53.50;;;;;;5009478;28;20120;-66
2023/07/01 00:35:32;;;;;;;2.42;0.75;;;21.40;53.30;;;;;;5028692;28;20052;-66
2023/07/01 00:37:58;;;;;;;1.23;0.80;;;21.40;53.20;;;;;;5026763;28;20044;-66
2023/07/01 00:40:24;;;;;;;3.83;0.95;;;21.30;53.40;;;;;;5010170;28;20485;-66
2023/07/01 00:42:49;;;;;;;1.40;1.15;;;21.40;53.40;;;;;;5027320;28;20094;-66
2023/07/01 00:45:15;;;;;;;1.10;0.80;;;21.30;53.20;;;;;;5012592;28;20041;-66
2023/07/01 00:47:41;;;;;;;0.95;0.40;;;21.40;53.20;;;;;;5011361;28;20033;-66
2023/07/01 00:50:16;;;;;;;1.63;0.98;;;21.30;53.20;;;;;;5031969;28;20033;-66
2023/07/01 00:52:43;;;;;;;0.52;0.52;;;21.40;53.20;;;;;;5028972;28;20047;-66
2023/07/01 00:55:10;;;;;;;0.63;0.63;;;21.30;53.10;;;;;;5031166;28;20039;-64
2023/07/01 00:57:36;;;;;;;0.70;0.65;;;21.30;52.90;;;;;;5031057;28;20072;-64
2023/07/01 01:00:08;;;;;;;1.13;0.70;;;21.30;53.00;;;;;;5014563;28;20032;-64
2023/07/01 01:02:45;;;;;;;;;;;21.30;52.60;;;;;;5029197;28;20025;-66
2023/07/01 01:05:15;;;;;;;2.65;0.50;;;21.20;52.60;;;;;;5029705;28;20248;-66
2023/07/01 01:07:55;;;;;;;1.58;0.85;;;21.20;52.60;;;;;;5031247;28;20040;-66
2023/07/01 01:10:22;;;;;;;1.05;0.90;;;21.20;52.70;;;;;;5030943;28;20099;-66
2023/07/01 01:12:53;;;;;;;1.58;0.57;;;21.20;52.80;;;;;;5029616;28;20120;-66
2023/07/01 01:15:18;;;;;;;1.85;0.93;;;21.30;53.20;;;;;;5029834;28;20024;-66
2023/07/01 01:17:45;;;;;;;0.80;0.70;;;21.20;52.50;;;;;;5012227;28;20078;-67
2023/07/01 01:20:20;;;;;;;0.93;0.70;;;21.20;52.90;;;;;;5031460;28;20021;-67
2023/07/01 01:22:51;;;;;;;0.70;0.65;;;21.10;53.20;;;;;;5027167;28;20112;-67
2023/07/01 01:25:24;;;;;;;2.85;0.77;;;21.10;53.40;;;;;;5028361;28;20112;-67
2023/07/01 01:27:52;;;;;;;1.23;0.95;;;21.10;53.50;;;;;;5026643;28;20433;-66
2023/07/01 01:30:21;;;;;;;1.63;0.90;;;21.10;53.70;;;;;;5031592;28;20033;-67
2023/07/01 01:32:47;;;;;;;1.20;1.05;;;21.10;53.80;;;;;;5012036;28;20037;-66
2023/07/01 01:35:13;;;;;;;1.95;0.68;;;21.10;53.80;;;;;;5031306;28;20389;-67
2023/07/01 01:37:49;;;;;;;1.52;0.80;;;21.10;53.80;;;;;;5030661;28;20034;-66
2023/07/01 01:40:22;;;;;;;2.03;0.70;;;21.00;54.00;;;;;;5030352;28;20384;-67
2023/07/01 01:42:49;;;;;;;5.80;1.30;;;21.00;53.90;;;;;;5028236;28;20026;-67
2023/07/01 01:45:18;;;;;;;1.38;0.90;;;21.10;54.10;;;;;;5013552;28;20025;-67
2023/07/01 01:47:46;;;;;;;1.40;0.90;;;21.10;54.30;;;;;;5029508;28;20018;-66
2023/07/01 01:50:12;;;;;;;1.15;0.80;;;21.00;54.50;;;;;;5011768;28;20041;-67
2023/07/01 01:52:41;;;;;;;1.23;1.08;;;21.00;54.50;;;;;;5029503;28;20092;-67
2023/07/01 01:55:09;;;;;;;3.90;0.77;;;21.00;54.50;;;;;;5012777;28;20365;-67
2023/07/01 01:57:35;;;;;;;1.30;0.68;;;21.00;54.50;;;;;;5029937;28;20116;-67
2023/07/01 02:00:08;;;;;;;0.73;0.60;;;21.10;54.40;;;;;;5031164;28;20491;-65
2023/07/01 02:02:34;;;;;;;0.65;0.65;;;21.10;54.20;;;;;;5025206;28;20094;-64
2023/07/01 02:05:00;;;;;;;3.63;0.77;;;21.10;54.20;;;;;;5029894;28;20108;-65
2023/07/01 02:07:26;;;;;;;0.40;0.40;;;21.00;54.30;;;;;;5029443;28;20188;-65
2023/07/01 02:09:52;;;;;;;0.77;0.68;;;21.00;54.40;;;;;;5031388;28;20488;-65
2023/07/01 02:12:18;;;;;;;1.23;0.50;;;21.00;54.80;;;;;;5027445;28;20029;-67
2023/07/01 02:14:44;;;;;;;0.98;0.75;;;21.00;55.00;;;;;;5023703;28;20037;-67
2023/07/01 02:17:09;;;;;;;0.60;0.60;;;21.00;55.30;;;;;;5027909;28;20099;-67
2023/07/01 02:19:35;;;;;;;1.00;0.90;;;21.00;55.60;;;;;;5030488;28;20049;-67
2023/07/01 02:22:01;;;;;;;2.33;0.85;;;21.00;56.10;;;;;;5029798;28;20040;-67
2023/07/01 02:24:26;;;;;;;0.45;0.45;;;20.90;56.60;;;;;;5028844;28;20436;-67
2023/07/01 02:26:52;;;;;;;3.65;1.02;;;20.80;56.70;;;;;;5029314;28;20084;-67
2023/07/01 02:29:18;;;;;;;1.27;0.60;;;20.80;56.90;;;;;;5025346;28;20116;-67
2023/07/01 02:31:43;;;;;;;0.43;0.43;;;20.80;57.00;;;;;;5027461;28;20568;-68
2023/07/01 02:34:09;;;;;;;3.15;1.15;;;20.80;57.20;;;;;;5029966;28;20037;-65
2023/07/01 02:36:35;;;;;;;1.92;0.95;;;20.80;57.50;;;;;;5029157;28;20068;-65
2023/07/01 02:39:00;;;;;;;0.73;0.60;;;20.80;57.80;;;;;;5029542;28;20584;-65
2023/07/01 02:41:26;;;;;;;0.88;0.77;;;20.80;58.10;;;;;;5027982;28;20037;-67
2023/07/01 02:43:52;;;;;;;1.33;0.95;;;20.70;58.40;;;;;;5030169;28;20039;-67
2023/07/01 02:46:18;;;;;;;1.17;0.93;;;20.70;59.60;;;;;;5029227;28;20072;-67
2023/07/01 02:48:43;;;;;;;1.23;0.98;;;20.60;60.30;;;;;;5029421;28;20033;-67
2023/07/01 02:51:09;;;;;;;1.95;0.70;;;20.60;61.40;;;;;;5011133;28;20025;-67
2023/07/01 02:53:34;;;;;;;0.70;0.65;;;20.50;62.20;;;;;;5028211;28;20439;-67
2023/07/01 02:56:02;;;;;;;3.53;0.73;;;20.30;62.40;;;;;;5030420;28;20095;-68
2023/07/01 02:58:27;;;;;;;2.10;0.85;;;20.30;62.80;;;;;;5029544;28;20124;-65
2023/07/01 03:00:53;;;;;;;0.95;0.77;;;20.20;63.10;;;;;;5026830;28;20112;-65
2023/07/01 03:03:19;;;;;;;1.42;0.98;;;20.20;62.90;;;;;;5028553;28;20061;-65
2023/07/01 03:05:45;;;;;;;2.95;0.52;;;20.30;62.90;;;;;;5025769;28;20076;-67
2023/07/01 03:08:11;;;;;;;1.30;0.75;;;20.30;62.60;;;;;;5011295;28;20029;-65
2023/07/01 03:10:36;;;;;;;1.63;1.15;;;20.40;62.60;;;;;;5027587;28;20653;-66
2023/07/01 03:13:02;;;;;;;0.55;0.55;;;20.30;63.00;;;;;;5025511;28;20030;-65
2023/07/01 03:15:28;;;;;;;0.43;0.40;;;20.30;63.70;;;;;;5029694;28;20064;-65
2023/07/01 03:17:54;;;;;;;1.70;0.73;;;20.30;63.50;;;;;;5024214;28;20033;-65
2023/07/01 03:20:25;;;;;;;1.00;0.88;;;20.30;63.80;;;;;;5010209;28;20432;-64
2023/07/01 03:22:52;;;;;;;1.33;0.95;;;20.30;63.90;;;;;;5010813;28;20420;-65
2023/07/01 03:25:18;;;;;;;1.05;0.90;;;20.20;63.80;;;;;;5029287;28;20029;-64
2023/07/01 03:27:44;;;;;;;4.68;0.70;;;20.20;64.30;;;;;;5028519;28;20076;-64
2023/07/01 03:30:13;;;;;;;0.85;0.75;;;20.20;64.30;;;;;;5028387;28;20025;-64
2023/07/01 03:32:47;;;;;;;0.43;0.40;;;20.30;64.00;;;;;;5027891;28;20033;-64
2023/07/01 03:35:14;;;;;;;1.42;0.80;;;20.30;64.00;;;;;;5010878;28;20112;-65
2023/07/01 03:37:41;;;;;;;0.98;0.80;;;20.30;64.60;;;;;;5025704;28;20021;-63
2023/07/01 03:40:10;;;;;;;1.85;0.80;;;20.30;66.30;;;;;;5027661;28;20120;-63
2023/07/01 03:42:37;;;;;;;3.50;0.93;;;20.10;67.10;;;;;;5027829;28;20021;-63
2023/07/01 03:45:05;;;;;;;1.25;0.82;;;20.00;68.10;;;;;;5027838;28;20041;-64
2023/07/01 03:47:31;;;;;;;0.43;0.43;;;19.80;68.50;;;;;;5028988;28;20048;-65
2023/07/01 03:49:57;;;;;;;3.22;0.73;;;19.80;68.80;;;;;;5028842;28;20029;-65
2023/07/01 03:52:22;;;;;;;0.70;0.55;;;19.70;69.40;;;;;;5007874;28;20456;-65
2023/07/01 03:54:48;;;;;;;0.70;0.55;;;19.70;69.60;;;;;;5011226;28;20037;-65
2023/07/01 03:57:13;;;;;;;11.10;0.80;;;19.70;69.80;;;;;;5010786;28;20046;-65
2023/07/01 03:59:39;;;;;;;1.65;1.00;;;19.70;69.90;;;;;;5028587;28;20448;-65
2023/07/01 04:02:05;;;;;;;0.68;0.52;;;19.70;70.00;;;;;;5027010;28;20071;-66
2023/07/01 04:04:31;;;;;;;0.73;0.70;;;19.70;70.30;;;;;;5028994;28;20022;-63
2023/07/01 04:06:57;;;;;;;1.40;0.85;;;19.70;70.00;;;;;;5027913;28;20533;-63
2023/07/01 04:09:22;;;;;;;0.70;0.60;;;19.70;70.00;;;;;;5028097;28;20030;-63
2023/07/01 04:11:48;;;;;;;1.23;0.45;;;19.70;70.00;;;;;;5024302;28;20535;-64
2023/07/01 04:14:15;;;;;;;1.10;0.65;;;19.70;69.80;;;;;;5028525;28;20038;-63
2023/07/01 04:16:44;;;;;;;0.47;0.47;;;19.70;69.80;;;;;;5024214;28;20033;-63
2023/07/01 04:19:11;;;;;;;0.77;0.50;;;19.70;69.70;;;;;;5014383;28;20025;-63
2023/07/01 04:21:38;;;;;;;0.52;0.50;;;19.70;69.60;;;;;;4992869;28;20053;-66
2023/07/01 04:24:05;;;;;;;0.90;0.75;;;19.70;69.60;;;;;;5027881;28;20028;-66
2023/07/01 04:26:31;;;;;;;4.10;0.75;;;19.70;69.50;;;;;;5031410;28;20029;-66
2023/07/01 04:28:57;;;;;;;2.70;0.95;;;19.70;69.70;;;;;;5011306;28;20033;-66
2023/07/01 04:31:23;;;;;;;1.33;0.70;;;19.70;69.70;;;;;;5012306;28;20044;-66
2023/07/01 04:33:49;;;;;;;1.55;0.77;;;19.70;69.90;;;;;;5031133;28;20022;-66
2023/07/01 04:36:15;;;;;;;0.98;0.68;;;19.70;70.20;;;;;;5030363;28;20044;-64
2023/07/01 04:38:41;;;;;;;1.20;0.65;;;19.60;70.70;;;;;;5032084;28;20095;-64
2023/07/01 04:41:07;;;;;;;1.17;0.70;;;19.60;71.10;;;;;;5031160;28;20053;-65
2023/07/01 04:43:34;;;;;;;0.47;0.47;;;19.60;71.60;;;;;;5032060;28;20032;-65
2023/07/01 04:46:00;;;;;;;0.35;0.30;;;19.50;71.90;;;;;;5032224;28;20048;-64
2023/07/01 04:48:26;;;;;;;0.50;0.30;;;19.60;72.00;;;;;;5031238;28;20033;-64
2023/07/01 04:50:52;;;;;;;1.77;0.88;;;19.60;72.20;;;;;;5013888;28;20038;-65
2023/07/01 04:53:18;;;;;;;2.60;1.00;;;19.60;72.60;;;;;;5031530;28;20400;-64
2023/07/01 04:55:44;;;;;;;0.80;0.60;;;19.50;72.90;;;;;;5014743;28;20026;-66
2023/07/01 04:58:10;;;;;;;1.35;0.45;;;19.40;73.70;;;;;;5012799;28;20108;-63
2023/07/01 05:00:37;;;;;;;1.00;0.65;;;19.30;73.90;;;;;;5010187;28;20280;-66
2023/07/01 05:03:05;;;;;;;1.08;0.43;;;19.40;74.20;;;;;;5030135;28;20037;-64
2023/07/01 05:05:31;;;;;;;0.77;0.50;;;19.40;74.40;;;;;;5009993;28;20056;-66
2023/07/01 05:07:57;;;;;;;0.75;0.55;;;19.40;74.40;;;;;;5030440;28;20029;-66
2023/07/01 05:10:23;;;;;;;0.70;0.68;;;19.40;74.50;;;;;;5033802;28;20060;-65
2023/07/01 05:12:49;;;;;;;0.82;0.70;;;19.30;74.80;;;;;;5031545;28;20030;-64
2023/07/01 05:15:15;;;;;;;0.98;0.60;;;19.30;75.20;;;;;;5016186;28;20107;-66
2023/07/01 05:17:42;;;;;;;1.85;0.63;;;19.30;76.00;;;;;;5030759;28;20517;-65
2023/07/01 05:20:08;;;;;;;1.15;0.88;;;19.20;75.90;;;;;;5012944;28;20036;-66
2023/07/01 05:22:34;;;;;;;0.98;0.75;;;19.20;76.10;;;;;;5028708;28;20058;-67
2023/07/01 05:25:00;;;;;;;0.50;0.40;;;19.20;76.20;;;;;;5027421;28;20018;-66
2023/07/01 05:27:26;;;;;;;0.80;0.75;;;19.20;76.10;;;;;;5016644;28;20048;-66
2023/07/01 05:29:52;;;;;;;1.73;0.60;;;19.20;76.50;;;;;;5029880;28;20067;-66
2023/07/01 05:32:18;;;;;;;0.73;0.65;;;19.20;76.90;;;;;;5029417;28;20378;-66
2023/07/01 05:34:43;;;;;;;0.50;0.50;;;19.20;77.00;;;;;;5030846;28;20402;-66
2023/07/01 05:37:09;;;;;;;0.60;0.40;;;19.10;77.50;;;;;;5011509;28;20104;-66
2023/07/01 05:39:34;;;;;;;0.47;0.47;;;19.00;77.80;;;;;;5014334;28;20033;-66
2023/07/01 05:42:00;;;;;;;1.30;0.52;;;19.00;77.80;;;;;;5010038;28;20048;-66
2023/07/01 05:44:26;;;;;;;0.50;0.50;;;19.00;77.90;;;;;;5024947;28;20034;-66
2023/07/01 05:46:53;;;;;;;1.80;0.90;;;19.00;77.70;;;;;;5028019;28;20055;-68
2023/07/01 05:49:18;;;;;;;0.63;0.60;;;19.10;78.00;;;;;;5007926;28;20072;-68
2023/07/01 05:51:45;;;;;;;1.98;0.60;;;19.10;78.00;;;;;;5030375;28;20109;-66
2023/07/01 05:54:10;;;;;;;0.80;0.60;;;19.00;78.20;;;;;;5030783;28;20065;-65
2023/07/01 05:56:36;;;;;;;0.45;0.45;;;19.00;78.40;;;;;;5031003;28;20052;-66
2023/07/01 05:59:02;;;;;;;0.63;0.63;;;19.00;78.50;;;;;;5030703;28;20030;-65
2023/07/01 06:01:28;;;;;;;0.45;0.45;;;19.00;78.30;;;;;;5008261;28;20497;-66
2023/07/01 06:03:54;;;;;;;0.50;0.50;;;19.10;78.30;;;;;;5027577;28;20473;-66
2023/07/01 06:06:20;;;;;;;2.08;0.50;;;19.10;78.40;;;;;;5029485;28;20035;-66
2023/07/01 06:08:46;;;;;;;0.80;0.40;;;19.10;78.60;;;;;;5012725;28;20033;-64
2023/07/01 06:11:13;;;;;;;1.48;0.80;;;19.10;78.50;;;;;;5025239;28;20504;-66
2023/07/01 06:13:45;;;;;;;0.60;0.60;;;19.10;78.60;;;;;;5023814;28;20147;-65
2023/07/01 06:16:11;;;;;;;0.50;0.50;;;19.10;78.80;;;;;;5030342;28;20025;-65
2023/07/01 06:18:36;;;;;;;0.70;0.70;;;19.10;78.90;;;;;;5026216;28;21368;-67
2023/07/01 06:21:06;;;;;;;0.50;0.50;;;19.10;79.00;;;;;;5008328;28;20026;-67
2023/07/01 06:23:38;;;;;;;0.68;0.50;;;19.10;78.90;;;;;;5009726;28;20080;-67
2023/07/01 06:26:05;;;;;;;1.13;0.60;;;19.10;79.00;;;;;;5020750;28;20171;-66
2023/07/01 06:28:30;;;;;;;0.50;0.50;;;19.20;78.70;;;;;;5024613;28;20075;-67
2023/07/01 06:30:56;;;;;;;0.35;0.35;;;19.20;78.50;;;;;;5035246;28;20037;-67
2023/07/01 06:33:22;;;;;;;0.88;0.55;;;19.20;78.40;;;;;;5012623;28;20029;-64
2023/07/01 06:35:47;;;;;;;0.50;0.50;;;19.20;78.70;;;;;;5029101;28;20561;-66
2023/07/01 06:38:13;;;;;;;0.30;0.30;;;19.20;78.80;;;;;;5025413;28;20060;-66
2023/07/01 06:40:39;;;;;;;1.42;0.70;;;19.20;78.80;;;;;;5027782;28;20034;-64
2023/07/01 06:43:05;;;;;;;0.73;0.55;;;19.30;78.70;;;;;;5024150;28;20030;-65
2023/07/01 06:45:31;;;;;;;2.15;0.73;;;19.30;78.60;;;;;;5033229;28;20021;-64
2023/07/01 06:47:58;;;;;;;0.93;0.50;;;19.30;78.70;;;;;;5029493;28;20021;-65
2023/07/01 06:50:24;;;;;;;1.05;0.77;;;19.30;78.70;;;;;;5028835;28;20067;-64
2023/07/01 06:52:50;;;;;;;2.03;0.93;;;19.30;78.70;;;;;;5028074;28;20025;-65
2023/07/01 06:55:17;;;;;;;0.40;0.40;;;19.30;79.60;;;;;;5029611;28;20030;-63
2023/07/01 06:57:43;;;;;;;0.70;0.52;;;19.30;79.00;;;;;;5011677;28;20470;-66
2023/07/01 07:00:11;;;;;;;0.98;0.63;;;19.30;79.10;;;;;;5026233;28;20021;-65
2023/07/01 07:02:37;;;;;;;0.40;0.40;;;19.30;79.40;;;;;;5030537;28;20022;-64
2023/07/01 07:05:04;;;;;;;0.80;0.63;;;19.20;79.30;;;;;;5029561;28;20029;-66
2023/07/01 07:07:30;;;;;;;0.65;0.50;;;19.20;79.50;;;;;;5030268;28;20519;-65
2023/07/01 07:09:56;;;;;;;1.35;0.77;;;19.30;79.30;;;;;;5028763;28;20044;-67
2023/07/01 07:12:22;;;;;;;0.73;0.55;;;19.30;79.30;;;;;;5029149;28;20560;-67
2023/07/01 07:14:48;;;;;;;0.30;0.30;;;19.30;79.20;;;;;;5025518;28;20032;-63
2023/07/01 07:17:14;;;;;;;1.58;0.50;;;19.40;79.20;;;;;;5009471;28;20124;-64
2023/07/01 07:19:39;;;;;;;0.47;0.47;;;19.40;79.20;;;;;;5029082;28;20358;-65
2023/07/01 07:22:05;;;;;;;0.57;0.57;;;19.40;79.20;;;;;;5010085;28;20562;-67
2023/07/01 07:24:31;;;;;;;0.63;0.57;;;19.40;79.70;;;;;;5027955;28;20033;-66
2023/07/01 07:27:00;;;;;;;0.57;0.55;;;19.40;79.70;;;;;;5028277;28;20033;-66
2023/07/01 07:29:27;;;;;;;0.43;0.43;;;19.40;79.90;;;;;;5029804;28;20238;-67
2023/07/01 07:31:53;;;;;;;0.50;0.50;;;19.40;80.00;;;;;;5027472;28;20126;-65
2023/07/01 07:34:19;;;;;;;1.33;0.70;;;19.40;79.90;;;;;;5029092;28;20033;-66
2023/07/01 07:36:44;;;;;;;0.93;0.70;;;19.40;80.00;;;;;;5010824;28;20044;-67
2023/07/01 07:39:12;;;;;;;0.47;0.47;;;19.40;80.90;;;;;;5026064;28;20112;-66
2023/07/01 07:41:39;;;;;;;0.55;0.55;;;19.40;80.40;;;;;;5028593;28;20017;-66
2023/07/01 07:44:05;;;;;;;0.50;0.50;;;19.40;80.40;;;;;;5023017;28;20027;-66
2023/07/01 07:46:31;;;;;;;0.95;0.85;;;19.40;80.60;;;;;;5010130;28;20501;-65
2023/07/01 07:48:57;;;;;;;0.50;0.50;;;19.40;80.50;;;;;;5026687;28;20036;-66
2023/07/01 07:51:23;;;;;;;0.43;0.40;;;19.40;80.60;;;;;;5025923;28;20030;-66
2023/07/01 07:53:48;;;;;;;0.68;0.50;;;19.40;80.40;;;;;;5022936;28;20120;-65
2023/07/01 07:56:14;;;;;;;0.95;0.52;;;19.50;80.30;;;;;;5005702;28;20037;-66
2023/07/01 07:58:40;;;;;;;0.68;0.60;;;19.50;80.00;;;;;;5001094;28;20112;-66
2023/07/01 08:01:05;;;;;;;0.40;0.40;;;19.60;79.90;;;;;;5029849;28;20575;-66
2023/07/01 08:03:31;;;;;;;0.50;0.50;;;19.60;80.00;;;;;;5027932;28;20029;-66
2023/07/01 08:05:57;;;;;;;0.50;0.50;;;19.60;80.10;;;;;;5028363;28;20516;-66
2023/07/01 08:08:22;;;;;;;0.60;0.60;;;19.60;80.00;;;;;;5027056;28;20814;-66
2023/07/01 08:10:48;;;;;;;0.60;0.60;;;19.60;80.00;;;;;;5028597;28;20500;-66
2023/07/01 08:13:14;;;;;;;0.45;0.40;;;19.60;80.10;;;;;;5027476;28;20397;-66
2023/07/01 08:15:41;;;;;;;0.57;0.40;;;19.60;80.20;;;;;;4993508;28;20479;-66
2023/07/01 08:18:08;;;;;;;2.15;1.02;;;19.60;80.20;;;;;;5021889;28;20045;-66
2023/07/01 08:20:33;;;;;;;1.65;1.00;;;19.60;80.10;;;;;;5010688;28;20029;-66
2023/07/01 08:22:59;;;;;;;0.63;0.57;;;19.60;80.20;;;;;;5029315;28;20028;-66
2023/07/01 08:25:25;;;;;;;0.40;0.40;;;19.60;80.30;;;;;;5025971;28;20021;-65
2023/07/01 08:27:51;;;;;;;0.60;0.60;;;19.60;80.40;;;;;;5029018;28;20041;-66
2023/07/01 08:30:17;;;;;;;2.05;0.38;;;19.60;80.50;;;;;;5010822;28;20037;-67
2023/07/01 08:32:43;;;;;;;0.88;0.50;;;19.50;80.50;;;;;;5028577;28;20025;-66
2023/07/01 08:35:09;;;;;;;0.50;0.50;;;19.50;80.90;;;;;;5010492;28;20045;-66
2023/07/01 08:37:35;;;;;;;0.50;0.50;;;19.50;81.30;;;;;;5022867;28;20037;-66
2023/07/01 08:40:00;;;;;;;0.50;0.50;;;19.50;81.30;;;;;;5027577;28;20369;-66
2023/07/01 08:42:37;;;;;;;0.77;0.75;;;19.50;81.30;;;;;;5028012;28;20041;-65
2023/07/01 08:45:04;;;;;;;1.15;0.70;;;19.60;81.40;;;;;;5022838;28;20018;-66
2023/07/01 08:47:32;;;;;;;0.68;0.52;;;19.60;81.50;;;;;;4993308;28;20084;-66
2023/07/01 08:50:04;;;;;;;0.93;0.45;;;19.60;81.60;;;;;;5028653;28;20417;-65
2023/07/01 08:52:42;;;;;;;0.30;0.30;;;19.60;81.60;;;;;;5009756;28;20025;-66
2023/07/01 08:55:12;;;;;;;0.40;0.40;;;19.70;81.50;;;;;;5028447;28;20044;-66
2023/07/01 08:57:39;;;;;;;0.35;0.35;;;19.70;81.50;;;;;;5023361;28;20013;-66
2023/07/01 09:00:06;;;;;;;0.55;0.55;;;19.70;81.60;;;;;;5028449;28;20046;-65
2023/07/01 09:02:33;;;;;;;1.55;0.55;;;19.70;81.70;;;;;;5009775;28;20037;-65
2023/07/01 09:04:59;;;;;;;0.30;0.30;;;19.70;81.80;;;;;;5026906;28;20463;-67
2023/07/01 09:07:25;;;;;;;0.50;0.50;;;19.80;81.80;;;;;;5029344;28;20041;-66
2023/07/01 09:09:50;;;;;;;0.50;0.50;;;19.80;81.80;;;;;;5014351;28;20120;-66
2023/07/01 09:12:16;;;;;;;0.57;0.50;;;19.80;81.80;;;;;;5030822;28;20051;-65
2023/07/01 09:15:11;;;;;;;0.50;0.50;;;19.90;81.50;;;;;;5030785;28;20049;-66
2023/07/01 09:17:39;;;;;;;0.82;0.60;;;19.90;81.80;;;;;;5006497;28;20156;-67
2023/07/01 09:20:07;;;;;;;0.50;0.40;;;19.90;82.00;;;;;;5032022;28;20049;-65
2023/07/01 09:22:35;;;;;;;0.63;0.60;;;19.90;82.30;;;;;;5030639;28;20100;-67
2023/07/01 09:25:01;;;;;;;0.63;0.50;;;19.80;82.50;;;;;;5029391;28;20030;-66
2023/07/01 09:27:47;;;;;;;0.40;0.30;;;19.80;82.60;;;;;;5031110;28;20103;-64
2023/07/01 09:30:24;;;;;;;0.57;0.50;;;19.90;82.70;;;;;;5029378;28;20050;-66
2023/07/01 09:32:50;;;;;;;0.40;0.40;;;20.00;82.70;;;;;;5011387;28;20136;-66
2023/07/01 09:35:16;;;;;;;0.88;0.70;;;20.00;82.60;;;;;;5013212;28;20101;-67
2023/07/01 09:37:41;;;;;;;0.40;0.40;;;20.10;82.60;;;;;;5031657;28;20040;-66
2023/07/01 09:40:21;;;;;;;0.50;0.40;;;20.10;82.70;;;;;;5030326;28;20029;-67
2023/07/01 09:42:55;;;;;;;3.85;0.60;;;20.20;82.60;;;;;;5010803;28;20491;-66
2023/07/01 09:45:21;;;;;;;0.40;0.40;;;20.20;82.50;;;;;;5009380;28;20018;-66
2023/07/01 09:47:52;;;;;;;2.83;0.60;;;20.10;82.40;;;;;;5030122;28;20029;-65
2023/07/01 09:50:26;;;;;;;0.40;0.40;;;20.20;82.50;;;;;;5026765;28;20108;-64
2023/07/01 09:52:53;;;;;;;0.98;0.90;;;20.10;82.70;;;;;;5024051;28;20075;-63
2023/07/01 09:55:19;;;;;;;0.70;0.70;;;20.10;82.80;;;;;;5029603;28;20424;-67
2023/07/01 09:57:45;;;;;;;0.40;0.40;;;20.10;82.90;;;;;;5028437;28;20108;-66
2023/07/01 10:00:15;;;;;;;1.42;0.77;;;20.00;82.90;;;;;;5030974;28;20034;-63
2023/07/01 10:02:46;;;;;;;0.50;0.35;;;20.10;83.00;;;;;;5011127;28;20026;-66
2023/07/01 10:05:12;;;;;;;2.35;0.80;;;20.10;82.80;;;;;;5023960;28;20488;-66
2023/07/01 10:07:39;;;;;;;1.10;0.70;;;20.10;82.80;;;;;;5008453;28;20061;-66
2023/07/01 10:10:13;;;;;;;1.95;0.88;;;20.20;82.70;;;;;;5026406;28;20060;-63
2023/07/01 10:12:43;;;;;;;0.77;0.70;;;20.20;83.00;;;;;;5010135;28;20037;-65
2023/07/01 10:15:12;;;;;;;0.93;0.90;;;20.20;83.00;;;;;;5027113;28;20061;-64
2023/07/01 10:17:52;;;;;;;1.17;0.77;;;20.20;83.10;;;;;;5007458;28;20037;-65
2023/07/01 10:20:32;;;;;;;0.57;0.57;;;20.20;83.20;;;;;;5026991;28;20100;-67
2023/07/01 10:23:00;;;;;;;2.05;0.68;;;20.20;83.20;;;;;;5024753;28;20029;-66
2023/07/01 10:25:34;;;;;;;0.73;0.55;;;20.20;83.30;;;;;;5028436;28;20420;-67
2023/07/01 10:28:00;;;;;;;1.55;1.20;;;20.10;83.60;;;;;;5013708;28;20037;-65
2023/07/01 10:30:26;;;;;;;0.80;0.68;;;20.00;83.90;;;;;;5026163;28;20029;-64
2023/07/01 10:32:52;;;;;;;0.70;0.70;;;20.00;84.20;;;;;;5025954;28;20022;-64
2023/07/01 10:35:18;;;;;;;0.57;0.57;;;20.10;84.10;;;;;;5013150;28;20079;-65
2023/07/01 10:38:05;;;;;;;0.80;0.80;;;20.10;84.00;;;;;;5030318;28;20135;-66
2023/07/01 10:40:30;;;;;;;0.60;0.60;;;20.20;84.00;;;;;;5030762;28;20037;-64
2023/07/01 10:43:22;;;;;;;0.73;0.50;;;20.20;83.90;;;;;;5027760;28;20354;-65
2023/07/01 10:46:21;;;;;;;1.05;0.95;;;20.30;83.80;;;;;;5024898;28;20080;-65
2023/07/01 10:49:02;;;;;;;0.60;0.50;;;20.30;83.90;;;;;;5007647;28;20044;-65
2023/07/01 10:51:28;;;;;;;0.77;0.60;;;20.30;83.90;;;;;;5027186;28;20124;-65
2023/07/01 10:53:59;;;;;;;0.75;0.70;;;20.30;83.90;;;;;;5005191;28;20049;-63
2023/07/01 10:56:28;;;;;;;0.40;0.40;;;20.40;83.90;;;;;;5027134;28;20049;-65
2023/07/01 10:59:22;;;;;;;2.38;0.90;;;20.40;83.70;;;;;;5024238;28;20041;-64
2023/07/01 11:01:56;;;;;;;0.70;0.50;;;20.50;83.80;;;;;;5029160;28;20613;-63
2023/07/01 11:04:22;;;;;;;0.43;0.43;;;20.50;83.80;;;;;;5025699;28;20021;-63
2023/07/01 11:06:54;;;;;;;0.70;0.70;;;20.50;84.00;;;;;;5028991;28;20045;-63
2023/07/01 11:09:28;;;;;;;2.22;0.90;;;20.50;84.00;;;;;;5027210;28;20440;-63
2023/07/01 11:11:55;;;;;;;0.65;0.43;;;20.50;83.90;;;;;;5026967;28;20104;-64
2023/07/01 11:14:32;;;;;;;1.27;1.02;;;20.60;83.80;;;;;;5029447;28;20037;-64
2023/07/01 11:17:15;;;;;;;0.90;0.75;;;20.80;83.70;;;;;;5027852;28;20542;-65
2023/07/01 11:19:44;;;;;;;0.70;0.57;;;20.80;83.40;;;;;;5029853;28;20030;-65
2023/07/01 11:22:13;;;;;;;1.50;1.02;;;20.80;83.50;;;;;;5031384;28;20366;-65
2023/07/01 11:24:39;;;;;;;1.67;0.95;;;20.80;83.40;;;;;;5031026;28;20021;-66
2023/07/01 11:27:08;;;;;;;2.15;0.98;;;20.90;83.40;;;;;;5028605;28;20750;-65
2023/07/01 11:29:35;;;;;;;1.75;0.95;;;20.90;83.50;;;;;;5023736;28;20031;-65
2023/07/01 11:32:06;;;;;;;1.25;0.60;;;20.90;83.50;;;;;;5025100;28;20072;-66
2023/07/01 11:34:32;;;;;;;1.45;0.95;;;20.90;83.40;;;;;;5028938;28;20029;-63
2023/07/01 11:36:59;;;;;;;1.88;1.30;;;20.90;83.40;;;;;;5022701;28;20037;-63
2023/07/01 11:39:27;;;;;;;1.33;1.15;;;21.00;83.40;;;;;;5025653;28;20022;-66
2023/07/01 11:41:55;;;;;;;1.83;1.15;;;21.10;83.30;;;;;;5024989;28;20478;-63
2023/07/01 11:44:23;;;;;;;1.50;1.40;;;21.20;83.30;;;;;;5023957;28;20049;-63
2023/07/01 11:46:49;;;;;;;1.27;0.85;;;21.30;82.90;;;;;;5023765;28;20108;-64
2023/07/01 11:49:22;;;;;;;1.27;1.15;;;21.40;82.80;;;;;;5029305;28;20335;-63
2023/07/01 11:51:50;;;;;;;1.48;1.10;;;21.50;82.80;;;;;;5029427;28;20021;-64
2023/07/01 11:54:38;;;;;;;1.90;0.93;;;21.50;82.60;;;;;;5010706;28;20038;-64
2023/07/01 11:57:08;;;;;;;1.58;0.90;;;21.50;82.40;;;;;;5016208;28;20091;-65
2023/07/01 11:59:35;;;;;;;1.83;0.85;;;21.60;82.70;;;;;;5026233;28;20088;-65
2023/07/01 12:02:01;;;;;;;1.02;0.93;;;21.60;82.80;;;;;;5029373;28;20107;-65
2023/07/01 12:04:28;;;;;;;1.15;1.00;;;21.60;82.70;;;;;;5028061;28;20357;-67
2023/07/01 12:07:15;;;;;;;1.17;0.77;;;21.50;82.90;;;;;;5029521;28;20045;-67
2023/07/01 12:09:43;;;;;;;1.17;1.10;;;21.50;83.10;;;;;;5029241;28;20031;-67
2023/07/01 12:12:34;;;;;;;1.05;0.95;;;21.40;83.30;;;;;;5028460;28;20779;-67
2023/07/01 12:15:06;;;;;;;2.40;1.55;;;21.50;83.40;;;;;;5029757;28;20541;-65
2023/07/01 12:17:32;;;;;;;2.43;1.03;;;21.50;83.30;;;;;;5028840;28;20053;-65
2023/07/01 12:19:58;;;;;;;1.42;1.02;;;21.60;83.10;;;;;;5028114;28;20103;-66
2023/07/01 12:22:28;;;;;;;2.13;1.20;;;21.70;82.80;;;;;;5029073;28;20033;-66
2023/07/01 12:24:57;;;;;;;1.65;1.08;;;21.80;82.60;;;;;;5028611;28;20025;-64
2023/07/01 12:27:24;;;;;;;0.90;0.88;;;21.70;82.50;;;;;;5027339;28;20045;-67
2023/07/01 12:29:49;;;;;;;1.75;1.35;;;21.60;82.50;;;;;;5021822;28;20502;-68
2023/07/01 12:32:15;;;;;;;1.30;0.90;;;21.50;82.80;;;;;;5010593;28;20125;-67
2023/07/01 12:34:41;;;;;;;1.52;1.08;;;21.30;83.20;;;;;;5027796;28;20037;-65
2023/07/01 12:37:07;;;;;;;0.70;0.70;;;21.20;83.50;;;;;;5025106;28;20477;-67
2023/07/01 12:39:33;;;;;;;1.25;0.90;;;21.20;83.70;;;;;;5029990;28;20025;-66
2023/07/01 12:41:59;;;;;;;0.80;0.80;;;21.30;83.90;;;;;;5030817;28;20037;-64
2023/07/01 12:44:25;;;;;;;1.10;0.90;;;21.40;84.00;;;;;;5030163;28;20083;-65
2023/07/01 12:46:51;;;;;;;0.90;0.68;;;21.60;83.90;;;;;;5012234;28;20033;-67
2023/07/01 12:49:17;;;;;;;1.02;0.93;;;21.70;83.40;;;;;;5030700;28;20109;-64
2023/07/01 12:51:44;;;;;;;0.88;0.88;;;21.90;83.20;;;;;;5031180;28;20369;-66